createdAt,value
2019-03-04T00:04:33.747Z,96709.52
2019-03-04T00:09:35.313Z,96710.75
2019-03-04T00:14:36.902Z,96713.96
2019-03-04T00:19:38.621Z,96699.48
2019-03-04T00:24:40.391Z,96694.72
2019-03-04T00:29:42.131Z,96697.04
2019-03-04T00:34:43.708Z,96700.36
2019-03-04T00:39:45.404Z,96690.14
2019-03-04T00:44:47.112Z,96686.08
2019-03-04T00:49:48.855Z,96676.00
2019-03-04T00:54:50.415Z,96670.30
2019-03-04T00:59:52.291Z,96652.41
2019-03-04T01:04:53.886Z,96640.23
2019-03-04T01:09:55.687Z,96634.53
2019-03-04T01:14:57.235Z,96632.36
2019-03-04T01:19:59.824Z,96634.39
2019-03-04T01:25:01.558Z,96624.22
2019-03-04T01:30:11.325Z,96620.95
2019-03-04T01:35:13.084Z,96606.71
2019-03-04T01:40:22.464Z,96596.90
2019-03-04T01:45:24.056Z,96591.11
2019-03-04T01:50:25.676Z,96592.48
2019-03-04T01:55:27.274Z,96590.55
2019-03-04T02:00:28.879Z,96583.31
2019-03-04T02:05:30.554Z,96571.22
2019-03-04T02:10:33.211Z,96565.63
2019-03-04T02:15:34.903Z,96553.38
2019-03-04T02:20:36.464Z,96544.66
2019-03-04T02:25:50.028Z,96535.11
2019-03-04T02:30:51.584Z,96526.50
2019-03-04T02:35:53.194Z,96520.81
2019-03-04T02:40:54.788Z,96516.02
2019-03-04T02:45:56.380Z,96513.64
2019-03-04T02:50:58.100Z,96516.99
2019-03-04T02:55:59.672Z,96507.05
2019-03-04T03:01:01.237Z,96508.58
2019-03-04T03:06:04.141Z,96509.44
2019-03-04T03:11:05.806Z,96516.25
2019-03-04T03:16:07.502Z,96513.56
2019-03-04T03:21:09.058Z,96515.19
2019-03-04T03:26:10.614Z,96516.80
2019-03-04T03:31:12.517Z,96514.52
2019-03-04T03:36:14.275Z,96506.22
2019-03-04T03:41:15.929Z,96494.20
2019-03-04T03:46:17.543Z,96492.84
2019-03-04T03:51:19.172Z,96490.45
2019-03-04T03:56:21.154Z,96500.11
2019-03-04T04:01:22.699Z,96497.65
2019-03-04T04:06:24.693Z,96496.80
2019-03-04T04:11:26.250Z,96504.53
2019-03-04T04:16:27.840Z,96502.27
2019-03-04T04:21:29.422Z,96505.33
2019-03-04T04:26:30.968Z,96501.36
2019-03-04T04:31:32.527Z,96492.72
2019-03-04T04:36:34.081Z,96488.36
2019-03-04T04:41:35.637Z,96489.74
2019-03-04T04:46:47.502Z,96471.61
2019-03-04T04:51:49.343Z,96466.63
2019-03-04T04:56:53.771Z,96472.27
2019-03-04T05:01:55.329Z,96460.39
2019-03-04T05:06:57.016Z,96447.68
2019-03-04T05:11:59.765Z,96463.25
2019-03-04T05:17:01.668Z,96461.42
2019-03-04T05:22:03.321Z,96461.58
2019-03-04T05:27:04.899Z,96457.37
2019-03-04T05:32:06.468Z,96474.62
2019-03-04T05:37:08.035Z,96464.03
2019-03-04T05:42:10.723Z,96450.91
2019-03-04T05:47:12.381Z,96445.47
2019-03-04T05:52:14.103Z,96447.30
2019-03-04T05:57:15.703Z,96454.95
2019-03-04T06:02:17.864Z,96450.17
2019-03-04T06:07:28.361Z,96444.16
2019-03-04T06:12:29.951Z,96444.41
2019-03-04T06:17:31.530Z,96440.77
2019-03-04T06:22:33.090Z,96422.84
2019-03-04T06:27:34.704Z,96429.87
2019-03-04T06:32:36.253Z,96438.52
2019-03-04T06:37:38.122Z,96441.14
2019-03-04T06:42:39.896Z,96441.11
2019-03-04T06:47:41.558Z,96440.06
2019-03-04T06:52:43.179Z,96437.86
2019-03-04T06:57:44.892Z,96431.08
2019-03-04T07:02:46.449Z,96431.77
2019-03-04T07:07:47.987Z,96425.47
2019-03-04T07:12:49.568Z,96423.80
2019-03-04T07:17:51.273Z,96416.19
2019-03-04T07:22:52.853Z,96414.36
2019-03-04T07:27:54.617Z,96409.89
2019-03-04T07:32:56.177Z,96408.14
2019-03-04T07:38:21.111Z,96407.50
2019-03-04T07:43:22.668Z,96408.38
2019-03-04T07:48:25.361Z,96404.60
2019-03-04T07:53:26.976Z,96390.27
2019-03-04T07:58:28.529Z,96388.34
2019-03-04T08:03:30.264Z,96382.07
2019-03-04T08:08:33.862Z,96380.91
2019-03-04T08:13:41.177Z,96379.73
2019-03-04T08:18:42.723Z,96376.31
2019-03-04T08:23:44.287Z,96361.26
2019-03-04T08:28:45.835Z,96354.15
2019-03-04T08:33:47.433Z,96351.75
2019-03-04T08:38:49.009Z,96338.62
2019-03-04T08:43:50.560Z,96336.76
2019-03-04T08:48:52.115Z,96335.27
2019-03-04T08:53:53.792Z,96340.98
2019-03-04T08:58:55.382Z,96329.80
2019-03-04T09:03:56.949Z,96331.31
2019-03-04T09:08:58.522Z,96323.36
2019-03-04T09:14:00.130Z,96325.86
2019-03-04T09:19:01.681Z,96330.16
2019-03-04T09:24:04.449Z,96327.91
2019-03-04T09:29:06.076Z,96309.83
2019-03-04T09:34:07.632Z,96313.72
2019-03-04T09:39:27.276Z,96302.59
2019-03-04T09:44:31.525Z,96288.36
2019-03-04T09:49:33.308Z,96275.34
2019-03-04T09:54:40.210Z,96287.36
2019-03-04T09:59:42.263Z,96300.25
2019-03-04T10:05:00.347Z,96298.19
2019-03-04T10:11:07.818Z,96278.35
2019-03-04T10:16:24.448Z,96264.94
2019-03-04T10:21:52.400Z,96249.36
2019-03-04T10:27:14.663Z,96231.12
2019-03-04T10:32:25.707Z,96225.70
2019-03-04T10:37:48.140Z,96220.09
2019-03-04T10:43:16.558Z,96192.55
2019-03-04T10:48:18.103Z,96204.20
2019-03-04T10:53:19.671Z,96214.49
2019-03-04T10:58:22.435Z,96201.08
2019-03-04T11:03:25.191Z,96185.42
2019-03-04T11:08:26.856Z,96178.61
2019-03-04T11:13:28.452Z,96167.62
2019-03-04T11:18:31.163Z,96158.91
2019-03-04T11:23:32.724Z,96146.55
2019-03-04T11:28:34.698Z,96132.59
2019-03-04T11:33:36.251Z,96114.81
2019-03-04T11:38:48.475Z,96116.30
2019-03-04T11:43:50.413Z,96087.14
2019-03-04T11:48:52.143Z,96099.20
2019-03-04T11:53:53.707Z,96102.44
2019-03-04T11:58:55.419Z,96090.33
2019-03-04T12:03:56.984Z,96086.33
2019-03-04T12:08:58.691Z,96078.67
2019-03-04T12:14:00.285Z,96071.09
2019-03-04T12:19:02.048Z,96076.27
2019-03-04T12:24:03.906Z,96068.36
2019-03-04T12:29:05.678Z,96062.95
2019-03-04T12:34:07.636Z,96065.16
2019-03-04T12:39:10.022Z,96045.59
2019-03-04T12:44:12.021Z,96043.41
2019-03-04T12:49:13.676Z,96033.65
2019-03-04T12:54:15.229Z,96035.58
2019-03-04T12:59:16.879Z,96025.62
2019-03-04T13:04:18.684Z,96028.08
2019-03-04T13:09:20.244Z,96005.54
2019-03-04T13:14:22.708Z,95980.84
2019-03-04T13:19:24.306Z,95947.92
2019-03-04T13:24:26.012Z,95932.89
2019-03-04T13:29:27.580Z,95930.11
2019-03-04T13:34:29.137Z,95910.56
2019-03-04T13:39:30.686Z,95898.70
2019-03-04T13:44:32.239Z,95895.97
2019-03-04T13:49:33.892Z,95890.31
2019-03-04T13:54:35.602Z,95876.45
2019-03-04T13:59:37.218Z,95859.46
2019-03-04T14:04:38.814Z,95850.62
2019-03-04T14:09:40.422Z,95844.13
2019-03-04T14:14:41.971Z,95819.66
2019-03-04T14:19:43.526Z,95813.34
2019-03-04T14:24:45.134Z,95809.01
2019-03-04T14:29:46.682Z,95793.26
2019-03-04T14:34:48.412Z,95792.10
2019-03-04T14:39:49.980Z,95776.81
2019-03-04T14:44:51.647Z,95782.38
2019-03-04T14:49:53.197Z,95773.95
2019-03-04T14:54:54.751Z,95765.30
2019-03-04T14:59:56.379Z,95744.11
2019-03-04T15:04:59.074Z,95745.76
2019-03-04T15:10:00.684Z,95732.81
2019-03-04T15:15:10.674Z,95719.74
2019-03-04T15:20:19.524Z,95720.52
2019-03-04T15:25:33.051Z,95709.50
2019-03-04T15:30:35.599Z,95699.67
2019-03-04T15:35:37.298Z,95687.45
2019-03-04T15:40:38.888Z,95686.84
2019-03-04T15:45:42.444Z,95677.17
2019-03-04T15:50:43.997Z,95672.86
2019-03-04T15:55:45.653Z,95665.23
2019-03-04T16:00:47.475Z,95661.06
2019-03-04T16:05:49.040Z,95654.78
2019-03-04T16:10:50.980Z,95663.77
2019-03-04T16:15:52.733Z,95660.25
2019-03-04T16:20:54.480Z,95672.09
2019-03-04T16:25:56.244Z,95685.70
2019-03-04T16:30:58.000Z,95686.24
2019-03-04T16:35:59.551Z,95706.28
2019-03-04T16:41:01.156Z,95717.63
2019-03-04T16:46:03.123Z,95729.22
2019-03-04T16:51:05.035Z,95744.61
2019-03-04T16:56:06.583Z,95756.05
2019-03-04T17:01:08.317Z,95762.45
2019-03-04T17:06:10.083Z,95760.67
2019-03-04T17:11:12.045Z,95758.24
2019-03-04T17:16:14.184Z,95758.23
2019-03-04T17:21:15.837Z,95765.57
2019-03-04T17:26:17.589Z,95765.05
2019-03-04T17:31:19.140Z,95765.44
2019-03-04T17:36:20.829Z,95760.02
2019-03-04T17:41:22.686Z,95763.87
2019-03-04T17:46:26.044Z,95755.34
2019-03-04T17:51:27.597Z,95759.03
2019-03-04T17:56:29.165Z,95761.29
2019-03-04T18:01:31.067Z,95749.78
2019-03-04T18:06:33.734Z,95739.95
2019-03-04T18:11:35.528Z,95741.20
2019-03-04T18:16:37.182Z,95728.69
2019-03-04T18:21:38.732Z,95720.66
2019-03-04T18:26:43.656Z,95716.31
2019-03-04T18:31:57.144Z,95714.86
2019-03-04T18:37:39.828Z,95700.80
2019-03-04T18:43:13.171Z,95706.54
2019-03-04T18:49:00.234Z,95708.02
2019-03-04T18:54:06.883Z,95709.95
2019-03-04T18:59:08.752Z,95723.88
2019-03-04T19:04:10.849Z,95765.45
2019-03-04T19:09:12.800Z,95803.81
2019-03-04T19:14:16.074Z,95835.92
2019-03-04T19:19:17.769Z,95828.34
2019-03-04T19:24:19.327Z,95851.00
2019-03-04T19:29:21.188Z,95880.27
2019-03-04T19:34:22.759Z,95882.11
2019-03-04T19:39:24.542Z,95893.52
2019-03-04T19:44:26.154Z,95892.66
2019-03-04T19:49:27.909Z,95908.39
2019-03-04T19:54:29.682Z,95924.83
2019-03-04T19:59:31.249Z,95959.84
2019-03-04T20:04:33.269Z,95961.76
2019-03-04T20:09:35.067Z,95994.20
2019-03-04T20:14:37.042Z,95982.97
2019-03-04T20:19:38.628Z,95967.45
2019-03-04T20:24:40.287Z,95938.66
2019-03-04T20:29:42.000Z,95934.58
2019-03-04T20:34:43.874Z,95927.59
2019-03-04T20:39:45.586Z,95930.67
2019-03-04T20:44:47.244Z,95915.30
2019-03-04T20:49:48.801Z,95907.99
2019-03-04T20:54:50.368Z,95903.69
2019-03-04T20:59:52.027Z,95901.16
2019-03-04T21:04:53.787Z,95900.53
2019-03-04T21:09:55.612Z,95911.78
2019-03-04T21:14:57.417Z,95906.86
2019-03-04T21:19:59.107Z,95890.73
2019-03-04T21:25:00.933Z,95896.48
2019-03-04T21:30:41.720Z,95902.02
2019-03-04T21:35:52.242Z,95900.63
2019-03-04T21:41:00.567Z,95895.92
2019-03-04T21:46:45.759Z,95893.66
2019-03-04T21:51:55.881Z,95894.00
2019-03-04T21:57:03.341Z,95884.14
2019-03-04T22:02:16.976Z,95879.55
2019-03-04T22:07:18.917Z,95877.56
2019-03-04T22:12:20.798Z,95869.16
2019-03-04T22:17:22.452Z,95879.06
2019-03-04T22:22:24.272Z,95874.44
2019-03-04T22:27:26.059Z,95868.80
2019-03-04T22:32:27.726Z,95862.53
2019-03-04T22:37:31.291Z,95868.95
2019-03-04T22:42:33.057Z,95864.59
2019-03-04T22:47:34.802Z,95866.89
2019-03-04T22:52:37.195Z,95854.64
2019-03-04T22:57:38.846Z,95845.03
2019-03-04T23:02:40.878Z,95840.42
2019-03-04T23:07:42.738Z,95837.80
2019-03-04T23:12:49.621Z,95829.90
2019-03-04T23:17:51.279Z,95828.27
2019-03-04T23:22:53.771Z,95842.52
2019-03-04T23:27:55.523Z,95846.16
2019-03-04T23:32:57.120Z,95825.48
2019-03-04T23:37:58.719Z,95829.63
2019-03-04T23:43:00.322Z,95852.25
2019-03-04T23:48:01.866Z,95862.02
2019-03-04T23:53:03.869Z,95869.79
2019-03-04T23:58:05.419Z,95889.16
